Flight Track Log - Related Links

Times and Time Zones

All times are in EDT time to prevent confusion due to time zone crossing. See the N935SS flight status page for this flight to view local times or setup timezone preferences in your user account.

Time Position Orientation Groundspeed Altitude Reporting Facility
EDT Latitude Longitude Course Direction KTS MPH feet Rate Location/Type
Fri 03:21:38 PM 32.3667 -64.6833 327° Northwest 268 308 2,000  Level New York Oceanic (ODAPS)
Fri 03:23:00 PM 37.6370 -69.8117 323° Northwest  Level Estimated
Fri 03:24:00 PM 37.7076 -69.8869 320° Northwest  Level Estimated
Fri 03:25:00 PM 37.7783 -69.9622 320° Northwest  Level Estimated
Fri 03:25:51 PM 32.3667 -64.6833 327° Northwest 268 308 15,000  Level New York Oceanic (ODAPS)
Fri 03:26:00 PM 37.8488 -70.0376 320° Northwest  Level Estimated
Fri 03:27:00 PM 37.9193 -70.1132 320° Northwest  Level Estimated
Fri 03:28:00 PM 32.8975 -65.0919 327° Northwest 268 308 2,000  Level FlightAware Transoceanic
Fri 03:29:00 PM 32.9800 -65.1561 327° Northwest 268 308 2,000  Level FlightAware Transoceanic
Fri 03:30:00 PM 33.0624 -65.2204 327° Northwest 268 308 2,000  Level FlightAware Transoceanic
Fri 03:31:00 PM 33.1447 -65.2848 327° Northwest 268 308 2,000 6,500 Level FlightAware Transoceanic
Fri 03:32:00 PM 33.2492 -65.3667 327° Northwest 268 308 15,000 6,500 Climbing FlightAware Transoceanic
Fri 03:33:00 PM 33.3347 -65.4339 327° Northwest 268 308 15,000  Level FlightAware Transoceanic
Fri 03:34:00 PM 33.4201 -65.5013 327° Northwest 268 308 15,000  Level FlightAware Transoceanic
Fri 03:35:00 PM 33.5055 -65.5687 327° Northwest 268 308 15,000  Level FlightAware Transoceanic
Fri 03:36:00 PM 33.5909 -65.6363 327° Northwest 268 308 15,000 13,103 Level FlightAware Transoceanic
Fri 03:36:27 PM 32.3667 -64.6833 327° Northwest 415 478 34,000  Climbing New York Oceanic (ODAPS)
Fri 03:37:00 PM 33.6762 -65.7040 327° Northwest 268 308 15,000 -12,258 Descending FlightAware Transoceanic
Fri 03:38:00 PM 33.7615 -65.7719 326° Northwest 268 308 15,000  Level FlightAware Transoceanic
Fri 03:39:00 PM 34.0635 -66.0136 326° Northwest 268 308 15,000  Level FlightAware Transoceanic
Fri 03:40:00 PM 34.1641 -66.0946 326° Northwest 268 308 15,000  Level FlightAware Transoceanic
Fri 03:41:00 PM 34.2646 -66.1757 326° Northwest 268 308 15,000 9,500 Level FlightAware Transoceanic
Fri 03:42:00 PM 34.3870 -66.2747 326° Northwest 415 478 34,000 17,015 Climbing FlightAware Transoceanic
Fri 03:42:07 PM 34.4000 -66.3000 327° Northwest 505 581 34,000  Level New York Oceanic (ODAPS)
Fri 03:42:24 PM 34.4000 -66.3000 327° Northwest 404 465 34,000  Level New York Oceanic (ODAPS)
Fri 03:43:00 PM 34.4830 -66.3528 326° Northwest 415 478 34,000  Level FlightAware Transoceanic
Fri 03:44:00 PM 34.5790 -66.4310 326° Northwest 415 478 34,000  Level FlightAware Transoceanic
Fri 03:45:00 PM 34.6749 -66.5094 326° Northwest 415 478 34,000  Level FlightAware Transoceanic
Fri 03:46:00 PM 34.7708 -66.5879 326° Northwest 415 478 34,000  Level FlightAware Transoceanic
Fri 03:47:00 PM 34.8420 -66.6596 320° Northwest  Level Estimated
Fri 03:48:00 PM 34.9700 -66.7624 323° Northwest 404 465 34,000  Level FlightAware Transoceanic
Fri 03:49:00 PM 35.0732 -66.8584 323° Northwest 404 465 34,000  Level FlightAware Transoceanic
Fri 03:50:00 PM 35.1763 -66.9547 323° Northwest 404 465 34,000  Level FlightAware Transoceanic
Fri 03:50:37 PM 34.8667 -66.6667 323° Northwest 465 535 34,000  Level New York Oceanic (ODAPS)
Fri 03:51:00 PM 35.2794 -67.0512 323° Northwest 404 465 34,000  Level FlightAware Transoceanic
Fri 03:52:00 PM 35.3824 -67.1479 323° Northwest 404 465 34,000  Level FlightAware Transoceanic
Fri 03:53:00 PM 35.4853 -67.2449 322° Northwest 404 465 34,000  Level FlightAware Transoceanic
Fri 03:54:00 PM 35.5881 -67.3421 322° Northwest 404 465 34,000  Level FlightAware Transoceanic
Fri 03:55:00 PM 35.6909 -67.4396 322° Northwest 404 465 34,000  Level FlightAware Transoceanic
Fri 03:56:00 PM 35.7935 -67.5374 322° Northwest 465 535 34,000  Level FlightAware Transoceanic
Fri 03:57:00 PM 35.8961 -67.6353 322° Northwest 465 535 34,000  Level FlightAware Transoceanic
Fri 03:58:00 PM 35.9987 -67.7336 322° Northwest 465 535 34,000  Level FlightAware Transoceanic
Fri 03:59:00 PM 36.1011 -67.8321 322° Northwest 465 535 34,000  Level FlightAware Transoceanic
Fri 04:00:00 PM 36.2035 -67.9308 322° Northwest 465 535 34,000  Level FlightAware Transoceanic
Fri 04:01:00 PM 36.3057 -68.0298 322° Northwest 465 535 34,000  Level FlightAware Transoceanic
Fri 04:02:00 PM 36.4079 -68.1291 322° Northwest 465 535 34,000  Level FlightAware Transoceanic
Fri 04:03:00 PM 36.5100 -68.2287 322° Northwest 465 535 34,000  Level FlightAware Transoceanic
Fri 04:04:00 PM 36.6121 -68.3285 322° Northwest 465 535 34,000  Level FlightAware Transoceanic
Fri 04:05:00 PM 36.7140 -68.4285 322° Northwest 465 535 34,000  Level FlightAware Transoceanic
Fri 04:06:00 PM 36.8159 -68.5288 322° Northwest 465 535 34,000  Level FlightAware Transoceanic
Fri 04:07:00 PM 36.9176 -68.6294 322° Northwest 465 535 34,000  Level FlightAware Transoceanic
Fri 04:08:00 PM 37.0193 -68.7303 322° Northwest 465 535 34,000  Level FlightAware Transoceanic
Fri 04:09:00 PM 37.1209 -68.8314 322° Northwest 465 535 34,000  Level FlightAware Transoceanic
Fri 04:10:00 PM 37.2225 -68.9328 321° Northwest 465 535 34,000  Level FlightAware Transoceanic
Fri 04:11:00 PM 37.3239 -69.0345 321° Northwest 465 535 34,000  Level FlightAware Transoceanic
Fri 04:12:00 PM 37.4252 -69.1365 321° Northwest 465 535 34,000  Level FlightAware Transoceanic
Fri 04:13:00 PM 37.5265 -69.2387 321° Northwest 465 535 34,000  Level FlightAware Transoceanic
Fri 04:14:00 PM 37.6277 -69.3412 321° Northwest 465 535 34,000  Level FlightAware Transoceanic
Fri 04:15:00 PM 37.7287 -69.4440 321° Northwest 465 535 34,000  Level FlightAware Transoceanic
Fri 04:16:00 PM 37.8297 -69.5471 321° Northwest 465 535 34,000  Level FlightAware Transoceanic
Fri 04:17:00 PM 37.9306 -69.6504 321° Northwest 465 535 34,000  Level FlightAware Transoceanic
Fri 04:17:34 PM 37.9203 -69.6350 298° West 466 536 34,000  Level New York Center
Fri 04:18:00 PM 38.0314 -69.7541 321° Northwest 465 535 34,000  Level FlightAware Transoceanic
Fri 04:18:35 PM 38.0153 -69.7392 319° Northwest 453 521 34,000  Level New York Center
Fri 04:19:00 PM 38.1322 -69.8580 321° Northwest 465 535 34,000  Level FlightAware Transoceanic
Fri 04:19:35 PM 38.1244 -69.8458 322° Northwest 458 527 34,000  Level New York Center
Fri 04:20:00 PM 38.2328 -69.9622 321° Northwest 465 535 34,000  Level FlightAware Transoceanic
Fri 04:20:36 PM 38.2169 -69.9372 322° Northwest 464 534 34,000  Level New York Center
Fri 04:21:00 PM 38.3333 -70.0667 298° West 465 535 34,000  Level FlightAware Transoceanic
Fri 04:21:36 PM 38.3197 -70.0314 324° Northwest 464 534 34,000  Level New York Center
Fri 04:22:00 PM 38.3916 -70.2069 298° West 465 535 34,000  Level FlightAware Transoceanic
Fri 04:22:35 PM 38.4244 -70.1258 325° Northwest 464 534 34,000  Level New York Center
Fri 04:23:35 PM 38.5269 -70.2206 324° Northwest 459 528 34,000  Level New York Center
Fri 04:24:37 PM 38.6275 -70.3211 322° Northwest 459 528 34,000  Level New York Center
Fri 04:25:34 PM 38.7300 -70.4161 324° Northwest 464 534 34,000  Level New York Center
Fri 04:26:35 PM 38.8344 -70.5117 325° Northwest 464 534 34,000  Level New York Center
Fri 04:27:35 PM 38.9347 -70.6131 322° Northwest 464 534 34,000  Level New York Center
Fri 04:28:36 PM 39.0389 -70.7089 324° Northwest 464 534 34,000  Level New York Center
Fri 04:29:34 PM 39.1433 -70.8053 324° Northwest 464 534 34,000  Level New York Center
Fri 04:30:35 PM 39.2514 -70.9181 321° Northwest 464 534 34,000  Level New York Center
Fri 04:31:36 PM 39.3450 -71.0097 323° Northwest 464 534 34,000 -645 Level New York Center
Fri 04:32:36 PM 39.4492 -71.1094 324° Northwest 464 534 32,700 -1,678 Descending New York Center
Fri 04:33:34 PM 39.5528 -71.2125 323° Northwest 464 534 30,700 -2,212 Descending New York Center
Fri 04:35:35 PM 39.7583 -71.4164 323° Northwest 464 534 26,100 -2,407 Descending New York Center
Fri 04:36:36 PM 39.8619 -71.5175 323° Northwest 469 540 23,400 -2,723 Descending New York Center
Fri 04:37:34 PM 39.9611 -71.6214 321° Northwest 469 540 20,700 -2,532 Descending New York Center
Fri 04:40:14 PM 40.1878 -71.8508 322° Northwest 421 484 14,200 -2,063 Descending Boston Center
Fri 04:41:15 PM 40.2925 -71.9586 322° Northwest 414 476 13,100 -590 Descending Boston Center
Fri 04:42:16 PM 40.3803 -72.0450 323° Northwest 403 464 13,000 -966 Descending Boston Center
Fri 04:43:13 PM 40.4681 -72.1344 322° Northwest 398 458 11,200 -594 Descending Boston Center
Fri 04:45:38 PM 40.6833 -72.3667 321° Northwest 393 452 11,000 -176 Descending New York TRACON
Fri 04:46:38 PM 40.7667 -72.4500 323° Northwest 360 414 10,600 -1,000 Descending New York TRACON
Fri 04:47:38 PM 40.8500 -72.5167 329° Northwest 309 356 9,000 -1,750 Descending New York TRACON
Fri 04:48:38 PM 40.9000 -72.5833 315° West 294 338 7,100 -1,000 Descending New York TRACON
Fri 04:49:38 PM 40.9667 -72.6500 323° Northwest 280 322 7,000 -350 Descending New York TRACON
Fri 04:50:38 PM 41.0167 -72.7167 315° West 282 325 6,400 -1,350 Descending New York TRACON
Fri 04:51:38 PM 41.0500 -72.8000 298° West 268 308 4,300 -1,200 Descending New York TRACON
Fri 04:52:38 PM 41.0833 -72.8833 298° West 262 302 4,000 -150 Descending New York TRACON
Fri 04:53:38 PM 41.1167 -72.9833 294° West 265 305 4,000  Level New York TRACON
Fri 04:54:38 PM 41.1333 -73.0667 285° West 258 297 4,000  Level New York TRACON
Fri 04:55:38 PM 41.1667 -73.1500 298° West 254 292 4,000  Level New York TRACON
Fri 04:56:38 PM 41.1667 -73.2500 270° West 251 289 4,000  Level New York TRACON
Fri 04:57:38 PM 41.1833 -73.3333 285° West 249 287 4,000  Level New York TRACON
Fri 04:58:38 PM 41.1833 -73.4167 270° West 218 251 4,000  Level New York TRACON
Fri 04:59:39 PM 41.1833 -73.4833 270° West 179 206 4,000 -50 Level New York TRACON
Fri 05:00:38 PM 41.2000 -73.5500 288° West 182 209 3,900 -504 Descending New York TRACON
Fri 05:01:38 PM 41.2000 -73.6333 270° West 188 216 3,000 -500 Descending New York TRACON
Fri 05:02:38 PM 41.2000 -73.7000 270° West 192 221 2,900 -500 Descending New York TRACON
Fri 05:03:38 PM 41.2500 -73.7333 333° Northwest 213 245 2,000 -900 Descending New York TRACON

Login

Don't have an account? Register now (free) for customized features, flight alerts, and more!